createdAt,value
2018-02-18T00:00:19.638Z,90.30
2018-02-18T00:02:47.115Z,90.30
2018-02-18T00:05:14.539Z,90.30
2018-02-18T00:07:42.008Z,90.30
2018-02-18T00:10:09.479Z,90.30
2018-02-18T00:12:36.942Z,90.30
2018-02-18T00:15:05.221Z,90.30
2018-02-18T00:17:32.691Z,90.30
2018-02-18T00:20:00.900Z,90.30
2018-02-18T00:22:28.375Z,90.30
2018-02-18T00:24:56.610Z,90.30
2018-02-18T00:27:24.046Z,90.30
2018-02-18T00:29:51.479Z,90.20
2018-02-18T00:32:18.938Z,90.20
2018-02-18T00:34:46.400Z,90.30
2018-02-18T00:37:13.871Z,90.20
2018-02-18T00:39:42.070Z,90.20
2018-02-18T00:42:09.509Z,90.20
2018-02-18T00:44:37.752Z,90.10
2018-02-18T00:47:05.198Z,90.10
2018-02-18T00:49:32.680Z,90.10
2018-02-18T00:52:00.148Z,90.10
2018-02-18T00:54:28.391Z,90.00
2018-02-18T00:56:56.674Z,90.00
2018-02-18T00:59:24.097Z,89.90
2018-02-18T01:01:51.535Z,89.90
2018-02-18T01:04:18.983Z,90.00
2018-02-18T01:06:46.423Z,90.00
2018-02-18T01:09:13.904Z,90.10
2018-02-18T01:11:41.363Z,90.10
2018-02-18T01:14:08.831Z,90.10
2018-02-18T01:16:36.283Z,90.10
2018-02-18T01:19:03.744Z,90.20
2018-02-18T01:21:31.239Z,90.20
2018-02-18T01:23:58.707Z,90.20
2018-02-18T01:26:26.156Z,90.30
2018-02-18T01:28:53.616Z,90.30
2018-02-18T01:31:21.065Z,90.30
2018-02-18T01:33:48.534Z,90.40
2018-02-18T01:36:15.979Z,90.30
2018-02-18T01:38:43.455Z,90.40
2018-02-18T01:41:10.910Z,90.40
2018-02-18T01:43:38.396Z,90.40
2018-02-18T01:46:06.632Z,90.50
2018-02-18T01:48:34.122Z,90.50
2018-02-18T01:51:02.335Z,90.50
2018-02-18T01:53:29.823Z,90.40
2018-02-18T01:55:57.290Z,90.50
2018-02-18T01:58:24.755Z,90.60
2018-02-18T02:00:53.012Z,90.60
2018-02-18T02:03:20.470Z,90.60
2018-02-18T02:05:47.927Z,90.60
2018-02-18T02:08:15.395Z,90.60
2018-02-18T02:10:42.907Z,90.60
2018-02-18T02:13:10.347Z,90.60
2018-02-18T02:15:37.808Z,90.70
2018-02-18T02:18:05.263Z,90.60
2018-02-18T02:20:32.706Z,90.70
2018-02-18T02:23:00.193Z,90.70
2018-02-18T02:25:27.631Z,90.70
2018-02-18T02:27:55.082Z,90.80
2018-02-18T02:30:22.559Z,90.80
2018-02-18T02:32:50.028Z,90.90
2018-02-18T02:35:17.496Z,90.80
2018-02-18T02:37:44.965Z,90.80
2018-02-18T02:40:12.436Z,90.90
2018-02-18T02:42:39.891Z,91.00
2018-02-18T02:45:07.360Z,91.00
2018-02-18T02:47:35.595Z,91.20
2018-02-18T02:50:03.100Z,91.10
2018-02-18T02:52:31.330Z,91.50
2018-02-18T02:54:58.777Z,91.20
2018-02-18T02:57:26.238Z,91.20
2018-02-18T02:59:53.699Z,91.20
2018-02-18T03:02:21.155Z,91.20
2018-02-18T03:04:48.595Z,91.20
2018-02-18T03:07:16.068Z,91.20
2018-02-18T03:09:43.519Z,91.20
2018-02-18T03:12:11.056Z,91.30
2018-02-18T03:14:38.544Z,91.30
2018-02-18T03:17:05.997Z,91.30
2018-02-18T03:19:33.466Z,91.20
2018-02-18T03:22:00.916Z,91.20
2018-02-18T03:24:28.359Z,91.20
2018-02-18T03:26:55.819Z,91.20
2018-02-18T03:29:24.055Z,91.40
2018-02-18T03:31:51.519Z,91.20
2018-02-18T03:34:19.008Z,91.20
2018-02-18T03:36:46.455Z,91.20
2018-02-18T03:39:13.903Z,91.20
2018-02-18T03:41:41.367Z,91.20
2018-02-18T03:44:08.818Z,91.20
2018-02-18T03:46:36.279Z,91.20
2018-02-18T03:49:03.740Z,91.30
2018-02-18T03:51:31.176Z,91.30
2018-02-18T03:53:58.646Z,91.30
2018-02-18T03:56:27.551Z,91.20
2018-02-18T03:58:55.015Z,91.20
2018-02-18T04:01:22.503Z,91.20
2018-02-18T04:03:49.991Z,91.20
2018-02-18T04:06:17.450Z,91.20
2018-02-18T04:08:45.674Z,91.20
2018-02-18T04:11:13.265Z,91.20
2018-02-18T04:13:40.736Z,91.30
2018-02-18T04:16:08.955Z,91.30
2018-02-18T04:18:36.462Z,91.30
2018-02-18T04:21:04.703Z,91.40
2018-02-18T04:23:32.162Z,91.30
2018-02-18T04:25:59.651Z,91.40
2018-02-18T04:28:27.169Z,91.40
2018-02-18T04:30:54.661Z,91.40
2018-02-18T04:33:22.892Z,91.40
2018-02-18T04:35:50.380Z,91.40
2018-02-18T04:38:17.944Z,91.50
2018-02-18T04:40:45.390Z,91.60
2018-02-18T04:43:12.882Z,91.60
2018-02-18T04:45:40.347Z,91.60
2018-02-18T04:48:07.844Z,91.60
2018-02-18T04:50:35.306Z,91.60
2018-02-18T04:53:02.845Z,91.70
2018-02-18T04:55:30.294Z,91.70
2018-02-18T04:57:58.547Z,91.70
2018-02-18T05:00:26.026Z,91.70
2018-02-18T05:02:53.482Z,91.70
2018-02-18T05:05:20.976Z,91.70
2018-02-18T05:07:48.446Z,91.70
2018-02-18T05:10:15.894Z,91.70
2018-02-18T05:12:43.394Z,91.80
2018-02-18T05:15:10.851Z,91.70
2018-02-18T05:17:39.186Z,91.70
2018-02-18T05:20:06.651Z,91.70
2018-02-18T05:22:34.164Z,91.70
2018-02-18T05:25:01.648Z,91.70
2018-02-18T05:27:29.103Z,91.70
2018-02-18T05:29:56.578Z,92.00
2018-02-18T05:32:24.039Z,91.90
2018-02-18T05:34:51.515Z,91.70
2018-02-18T05:37:19.758Z,91.70
2018-02-18T05:39:47.228Z,91.70
2018-02-18T05:42:14.719Z,91.70
2018-02-18T05:44:42.245Z,91.70
2018-02-18T05:47:09.695Z,91.70
2018-02-18T05:49:37.158Z,91.70
2018-02-18T05:52:04.652Z,91.70
2018-02-18T05:54:32.141Z,91.70
2018-02-18T05:56:59.616Z,91.70
2018-02-18T05:59:27.870Z,91.70
2018-02-18T06:01:56.134Z,91.80
2018-02-18T06:04:23.604Z,91.70
2018-02-18T06:06:51.058Z,91.70
2018-02-18T06:09:18.551Z,91.70
2018-02-18T06:11:46.002Z,91.70
2018-02-18T06:14:13.489Z,91.70
2018-02-18T06:16:41.706Z,91.60
2018-02-18T06:19:09.204Z,91.60
2018-02-18T06:21:36.671Z,91.50
2018-02-18T06:24:04.900Z,91.50
2018-02-18T06:26:32.422Z,91.50
2018-02-18T06:29:00.635Z,91.50
2018-02-18T06:31:28.121Z,91.50
2018-02-18T06:33:55.577Z,91.50
2018-02-18T06:36:23.082Z,91.60
2018-02-18T06:38:50.552Z,91.60
2018-02-18T06:41:18.843Z,91.60
2018-02-18T06:43:46.367Z,91.60
2018-02-18T06:46:13.847Z,91.60
2018-02-18T06:48:41.339Z,91.60
2018-02-18T06:51:08.827Z,91.60
2018-02-18T06:53:36.314Z,91.70
2018-02-18T06:56:03.792Z,91.60
2018-02-18T06:58:31.243Z,91.60
2018-02-18T07:00:58.735Z,91.60
2018-02-18T07:03:26.202Z,91.60
2018-02-18T07:05:53.734Z,91.60
2018-02-18T07:08:21.195Z,91.60
2018-02-18T07:10:48.691Z,91.60
2018-02-18T07:13:16.152Z,91.60
2018-02-18T07:15:43.638Z,91.60
2018-02-18T07:18:11.111Z,91.60
2018-02-18T07:20:38.601Z,91.70
2018-02-18T07:23:06.831Z,91.70
2018-02-18T07:25:34.349Z,91.70
2018-02-18T07:28:01.808Z,91.70
2018-02-18T07:30:29.341Z,91.70
2018-02-18T07:32:56.776Z,91.70
2018-02-18T07:35:24.234Z,91.70
2018-02-18T07:37:51.715Z,91.70
2018-02-18T07:40:19.203Z,91.70
2018-02-18T07:42:46.810Z,91.80
2018-02-18T07:45:14.279Z,91.80
2018-02-18T07:47:41.744Z,91.80
2018-02-18T07:50:09.215Z,91.80
2018-02-18T07:52:36.696Z,91.80
2018-02-18T07:55:04.162Z,91.80
2018-02-18T07:57:31.638Z,91.70
2018-02-18T07:59:59.125Z,91.70
2018-02-18T08:02:26.590Z,91.70
2018-02-18T08:04:54.842Z,91.70
2018-02-18T08:07:22.304Z,91.70
2018-02-18T08:09:49.763Z,91.70
2018-02-18T08:12:17.250Z,91.60
2018-02-18T08:14:44.706Z,91.60
2018-02-18T08:17:12.207Z,91.60
2018-02-18T08:19:39.666Z,91.60
2018-02-18T08:22:07.151Z,91.70
2018-02-18T08:24:34.607Z,91.60
2018-02-18T08:27:02.086Z,91.70
2018-02-18T08:29:29.558Z,91.60
2018-02-18T08:31:57.002Z,91.60
2018-02-18T08:34:24.487Z,91.50
2018-02-18T08:36:51.967Z,91.50
2018-02-18T08:39:19.631Z,91.50
2018-02-18T08:41:47.090Z,91.50
2018-02-18T08:44:14.574Z,91.30
2018-02-18T08:46:42.051Z,91.40
2018-02-18T08:49:10.489Z,91.30
2018-02-18T08:51:37.941Z,91.30
2018-02-18T08:54:05.407Z,91.40
2018-02-18T08:56:33.083Z,91.50
2018-02-18T08:59:01.363Z,91.60
2018-02-18T09:01:29.022Z,91.60
2018-02-18T09:03:56.483Z,91.20
2018-02-18T09:06:23.966Z,91.30
2018-02-18T09:08:51.441Z,91.40
2018-02-18T09:11:18.892Z,91.50
2018-02-18T09:13:46.380Z,91.30
2018-02-18T09:16:13.960Z,91.30
2018-02-18T09:18:41.462Z,90.70
2018-02-18T09:21:08.911Z,90.10
2018-02-18T09:23:36.369Z,90.00
2018-02-18T09:26:03.987Z,89.90
2018-02-18T09:28:31.467Z,89.30
2018-02-18T09:30:58.918Z,88.60
2018-02-18T09:33:26.398Z,87.40
2018-02-18T09:35:53.858Z,87.20
2018-02-18T09:38:21.351Z,87.00
2018-02-18T09:40:48.830Z,86.00
2018-02-18T09:43:16.311Z,84.80
2018-02-18T09:45:44.569Z,84.60
2018-02-18T09:48:12.072Z,84.70
2018-02-18T09:50:39.531Z,83.10
2018-02-18T09:53:06.984Z,81.90
2018-02-18T09:55:34.490Z,81.90
2018-02-18T09:58:02.715Z,81.60
2018-02-18T10:00:30.244Z,81.60
2018-02-18T10:02:57.715Z,81.10
2018-02-18T10:05:25.191Z,80.50
2018-02-18T10:07:52.718Z,79.80
2018-02-18T10:10:20.182Z,79.40
2018-02-18T10:12:47.663Z,79.00
2018-02-18T10:15:15.139Z,79.80
2018-02-18T10:17:42.603Z,78.00
2018-02-18T10:20:10.095Z,77.70
2018-02-18T10:22:37.558Z,77.30
2018-02-18T10:25:05.132Z,77.20
2018-02-18T10:27:32.603Z,76.30
2018-02-18T10:30:00.101Z,76.20
2018-02-18T10:32:27.589Z,75.20
2018-02-18T10:34:55.039Z,75.40
2018-02-18T10:37:22.565Z,74.10
2018-02-18T10:39:50.003Z,75.10
2018-02-18T10:42:18.243Z,73.40
2018-02-18T10:44:46.472Z,72.40
2018-02-18T10:47:14.710Z,72.00
2018-02-18T10:49:42.187Z,72.00
2018-02-18T10:52:10.478Z,72.60
2018-02-18T10:54:38.703Z,72.50
2018-02-18T10:57:06.939Z,73.00
2018-02-18T10:59:34.438Z,72.00
2018-02-18T11:02:01.912Z,70.60
2018-02-18T11:04:29.388Z,69.20
2018-02-18T11:06:56.850Z,68.90
2018-02-18T11:09:24.422Z,69.20
2018-02-18T11:11:52.747Z,67.30
2018-02-18T11:14:20.219Z,67.30
2018-02-18T11:16:47.700Z,65.20
2018-02-18T11:19:15.152Z,65.40
2018-02-18T11:21:42.643Z,63.60
2018-02-18T11:24:10.123Z,62.20
2018-02-18T11:26:37.599Z,61.90
2018-02-18T11:29:05.114Z,60.80
2018-02-18T11:31:32.600Z,60.00
2018-02-18T11:34:02.701Z,57.90
2018-02-18T11:36:30.165Z,57.90
2018-02-18T11:38:57.747Z,57.60
2018-02-18T11:41:25.215Z,57.50
2018-02-18T11:43:52.684Z,57.10
2018-02-18T11:46:20.170Z,56.30
2018-02-18T11:48:47.619Z,56.10
2018-02-18T11:51:15.132Z,55.10
2018-02-18T11:53:42.620Z,54.80
2018-02-18T11:56:10.098Z,53.20
2018-02-18T11:58:38.355Z,51.50
2018-02-18T12:01:05.842Z,51.50
2018-02-18T12:03:33.347Z,52.30
2018-02-18T12:06:00.839Z,51.90
2018-02-18T12:08:28.441Z,51.90
2018-02-18T12:10:55.912Z,50.60
2018-02-18T12:13:23.379Z,49.50
2018-02-18T12:15:50.865Z,49.00
2018-02-18T12:18:18.344Z,48.10
2018-02-18T12:20:46.580Z,47.00
2018-02-18T12:23:14.067Z,47.00
2018-02-18T12:25:42.303Z,47.10
2018-02-18T12:28:10.520Z,46.50
2018-02-18T12:30:37.998Z,47.00
2018-02-18T12:33:06.244Z,47.60
2018-02-18T12:35:33.717Z,47.70
2018-02-18T12:38:01.208Z,47.70
2018-02-18T12:40:28.687Z,48.00
2018-02-18T12:42:56.146Z,47.30
2018-02-18T12:45:23.635Z,46.90
2018-02-18T12:47:51.098Z,46.30
2018-02-18T12:50:18.580Z,46.40
2018-02-18T12:52:46.826Z,46.30
2018-02-18T12:55:14.284Z,46.30
2018-02-18T12:57:41.823Z,47.20
2018-02-18T13:00:09.267Z,47.20
2018-02-18T13:02:36.735Z,46.90
2018-02-18T13:05:04.207Z,45.90
2018-02-18T13:07:31.692Z,46.20
2018-02-18T13:09:59.949Z,45.10
2018-02-18T13:12:27.409Z,45.20
2018-02-18T13:14:54.887Z,46.50
2018-02-18T13:17:22.399Z,46.50
2018-02-18T13:19:49.865Z,46.50
2018-02-18T13:22:17.344Z,45.80
2018-02-18T13:24:44.799Z,45.50
2018-02-18T13:27:12.270Z,44.90
2018-02-18T13:29:40.507Z,45.20
2018-02-18T13:32:08.006Z,45.20
2018-02-18T13:34:36.240Z,44.30
2018-02-18T13:37:03.735Z,44.40
2018-02-18T13:39:31.995Z,44.50
2018-02-18T13:41:59.455Z,44.40
2018-02-18T13:44:27.824Z,45.60
2018-02-18T13:46:55.291Z,45.70
2018-02-18T13:49:22.815Z,46.00
2018-02-18T13:51:50.322Z,46.60
2018-02-18T13:54:17.778Z,47.70
2018-02-18T13:56:45.270Z,49.00
2018-02-18T13:59:12.738Z,50.40
2018-02-18T14:01:40.220Z,50.70
2018-02-18T14:04:07.724Z,51.20
2018-02-18T14:06:35.983Z,52.60
2018-02-18T14:09:03.446Z,52.60
2018-02-18T14:11:31.717Z,53.90
2018-02-18T14:13:59.184Z,53.30
2018-02-18T14:16:26.687Z,53.90
2018-02-18T14:18:54.175Z,54.30
2018-02-18T14:21:21.659Z,54.30
2018-02-18T14:23:49.922Z,54.40
2018-02-18T14:26:17.400Z,54.40
2018-02-18T14:28:45.634Z,54.80
2018-02-18T14:31:13.115Z,54.80
2018-02-18T14:33:40.625Z,55.30
2018-02-18T14:36:08.103Z,55.20
2018-02-18T14:38:35.575Z,55.60
2018-02-18T14:41:03.057Z,54.70
2018-02-18T14:43:42.467Z,55.20
2018-02-18T14:46:22.480Z,55.70
2018-02-18T14:49:01.669Z,55.70
2018-02-18T14:51:41.885Z,55.20
2018-02-18T14:57:30.360Z,55.10
2018-02-18T14:59:57.811Z,55.50
2018-02-18T15:02:25.307Z,56.10
2018-02-18T15:04:52.764Z,55.80
2018-02-18T15:07:20.284Z,55.90
2018-02-18T15:09:47.739Z,56.50
2018-02-18T15:12:15.239Z,56.50
2018-02-18T15:14:42.701Z,56.40
2018-02-18T15:17:10.207Z,56.90
2018-02-18T15:19:37.683Z,57.00
2018-02-18T15:22:05.138Z,57.20
2018-02-18T15:24:32.618Z,56.90
2018-02-18T15:27:00.086Z,57.20
2018-02-18T15:29:27.563Z,57.30
2018-02-18T15:31:55.149Z,57.80
2018-02-18T15:34:22.875Z,57.70
2018-02-18T15:36:51.143Z,58.20
2018-02-18T15:39:18.618Z,58.60
2018-02-18T15:41:46.135Z,59.00
2018-02-18T15:44:13.611Z,58.60
2018-02-18T15:46:41.091Z,58.90
2018-02-18T15:49:09.349Z,58.80
2018-02-18T15:51:36.818Z,58.80
2018-02-18T15:54:05.050Z,59.30
2018-02-18T15:56:32.550Z,59.30
2018-02-18T15:59:00.774Z,59.70
2018-02-18T16:01:28.271Z,59.70
2018-02-18T16:03:55.729Z,60.30
2018-02-18T16:06:23.352Z,61.50
2018-02-18T16:08:50.819Z,61.40
2018-02-18T16:11:18.282Z,61.60
2018-02-18T16:13:45.759Z,62.40
2018-02-18T16:16:13.239Z,63.20
2018-02-18T16:18:40.754Z,64.10
2018-02-18T16:21:08.244Z,64.30
2018-02-18T16:23:36.510Z,64.90
2018-02-18T16:26:03.967Z,64.90
2018-02-18T16:28:31.425Z,64.90
2018-02-18T16:30:58.895Z,65.20
2018-02-18T16:33:27.120Z,66.10
2018-02-18T16:35:56.061Z,67.40
2018-02-18T16:38:23.567Z,66.70
2018-02-18T16:40:51.031Z,67.10
2018-02-18T16:43:18.528Z,67.50
2018-02-18T16:45:45.999Z,67.60
2018-02-18T16:48:14.262Z,68.50
2018-02-18T16:50:41.732Z,68.50
2018-02-18T16:53:09.957Z,68.70
2018-02-18T16:55:37.470Z,68.70
2018-02-18T16:58:05.703Z,69.30
2018-02-18T17:00:33.158Z,69.20
2018-02-18T17:03:01.411Z,69.70
2018-02-18T17:05:29.084Z,69.70
2018-02-18T17:07:56.555Z,70.20
2018-02-18T17:10:24.051Z,70.30
2018-02-18T17:12:52.317Z,70.90
2018-02-18T17:15:19.775Z,70.90
2018-02-18T17:17:48.153Z,71.20
2018-02-18T17:20:15.615Z,71.20
2018-02-18T17:22:43.126Z,71.40
2018-02-18T17:25:10.576Z,71.50
2018-02-18T17:27:38.179Z,71.70
2018-02-18T17:30:05.655Z,71.80
2018-02-18T17:32:33.135Z,72.00
2018-02-18T17:35:00.608Z,72.20
2018-02-18T17:37:28.115Z,72.60
2018-02-18T17:39:56.359Z,73.70
2018-02-18T17:42:23.851Z,73.00
2018-02-18T17:44:52.121Z,72.90
2018-02-18T17:47:19.573Z,72.90
2018-02-18T17:49:47.038Z,73.40
2018-02-18T17:52:15.291Z,73.90
2018-02-18T17:54:43.532Z,74.20
2018-02-18T17:57:11.004Z,74.20
2018-02-18T17:59:39.227Z,74.60
2018-02-18T18:02:07.479Z,74.60
2018-02-18T18:04:34.930Z,74.60
2018-02-18T18:07:02.414Z,74.90
2018-02-18T18:09:30.667Z,75.20
2018-02-18T18:11:58.138Z,75.10
2018-02-18T18:14:25.603Z,75.40
2018-02-18T18:16:53.882Z,75.50
2018-02-18T18:19:22.120Z,75.80
2018-02-18T18:21:49.602Z,75.60
2018-02-18T18:24:17.818Z,76.00
2018-02-18T18:26:45.302Z,76.00
2018-02-18T18:29:12.769Z,76.10
2018-02-18T18:31:40.258Z,76.80
2018-02-18T18:34:08.492Z,76.60
2018-02-18T18:36:35.996Z,76.60
2018-02-18T18:39:04.214Z,76.70
2018-02-18T18:41:31.685Z,76.70
2018-02-18T18:43:59.254Z,76.80
2018-02-18T18:46:28.238Z,77.10
2018-02-18T18:48:55.807Z,77.10
2018-02-18T18:51:23.279Z,77.30
2018-02-18T18:53:51.531Z,78.20
2018-02-18T18:56:18.986Z,77.50
2018-02-18T18:58:46.467Z,77.60
2018-02-18T19:01:13.951Z,77.70
2018-02-18T19:03:41.436Z,77.90
2018-02-18T19:06:08.891Z,77.90
2018-02-18T19:08:36.375Z,78.00
2018-02-18T19:11:03.856Z,78.20
2018-02-18T19:13:32.130Z,78.30
2018-02-18T19:15:59.578Z,78.30
2018-02-18T19:18:27.070Z,78.40
2018-02-18T19:20:54.543Z,78.70
2018-02-18T19:23:22.015Z,78.90
2018-02-18T19:25:49.539Z,78.90
2018-02-18T19:28:17.798Z,79.10
2018-02-18T19:30:46.046Z,79.30
2018-02-18T19:33:13.541Z,79.10
2018-02-18T19:35:41.782Z,79.30
2018-02-18T19:38:09.272Z,79.30
2018-02-18T19:40:37.514Z,79.50
2018-02-18T19:43:04.982Z,79.40
2018-02-18T19:45:32.474Z,79.60
2018-02-18T19:47:59.932Z,79.60
2018-02-18T19:50:27.410Z,79.60
2018-02-18T19:52:54.883Z,79.70
2018-02-18T19:55:22.343Z,79.80
2018-02-18T19:57:49.838Z,79.80
2018-02-18T20:00:17.486Z,79.80
2018-02-18T20:02:46.485Z,79.80
2018-02-18T20:05:14.750Z,79.90
2018-02-18T20:07:42.223Z,79.80
2018-02-18T20:10:09.771Z,80.00
2018-02-18T20:12:37.238Z,80.00
2018-02-18T20:15:04.747Z,80.00
2018-02-18T20:17:32.332Z,79.90
2018-02-18T20:20:01.439Z,80.00
2018-02-18T20:22:28.904Z,79.80
2018-02-18T20:24:56.363Z,79.90
2018-02-18T20:27:23.904Z,79.80
2018-02-18T20:29:51.300Z,79.80
2018-02-18T20:32:18.787Z,79.90
2018-02-18T20:34:46.387Z,79.80
2018-02-18T20:37:14.643Z,80.00
2018-02-18T20:39:42.120Z,80.00
2018-02-18T20:42:09.595Z,80.00
2018-02-18T20:44:37.095Z,80.10
2018-02-18T20:47:04.599Z,80.00
2018-02-18T20:49:32.823Z,80.80
2018-02-18T20:52:00.347Z,79.90
2018-02-18T20:54:28.608Z,79.90
2018-02-18T20:56:57.001Z,79.30
2018-02-18T20:59:24.451Z,79.90
2018-02-18T21:01:52.024Z,79.90
2018-02-18T21:04:19.504Z,80.10
2018-02-18T21:06:46.990Z,80.10
2018-02-18T21:09:14.452Z,80.10
2018-02-18T21:11:41.934Z,80.20
2018-02-18T21:14:09.416Z,80.20
2018-02-18T21:16:36.885Z,80.20
2018-02-18T21:19:04.377Z,80.30
2018-02-18T21:21:31.863Z,80.30
2018-02-18T21:24:00.199Z,80.40
2018-02-18T21:26:28.438Z,80.30
2018-02-18T21:28:55.926Z,80.30
2018-02-18T21:31:23.409Z,80.30
2018-02-18T21:33:50.898Z,80.30
2018-02-18T21:36:19.118Z,80.50
2018-02-18T21:38:46.579Z,80.40
2018-02-18T21:41:14.062Z,80.40
2018-02-18T21:43:41.537Z,80.40
2018-02-18T21:46:09.783Z,80.60
2018-02-18T21:48:38.008Z,80.50
2018-02-18T21:51:05.499Z,80.50
2018-02-18T21:53:33.787Z,80.50
2018-02-18T21:56:01.294Z,80.50
2018-02-18T21:58:29.530Z,80.50
2018-02-18T22:00:57.003Z,80.50
2018-02-18T22:03:24.513Z,80.50
2018-02-18T22:05:51.991Z,80.60
2018-02-18T22:08:19.463Z,80.50
2018-02-18T22:10:46.935Z,80.50
2018-02-18T22:13:14.419Z,80.60
2018-02-18T22:15:41.885Z,80.60
2018-02-18T22:18:09.374Z,80.40
2018-02-18T22:20:36.827Z,80.60
2018-02-18T22:23:04.299Z,80.50
2018-02-18T22:25:31.783Z,80.70
2018-02-18T22:27:59.256Z,81.50
2018-02-18T22:30:27.533Z,81.10
2018-02-18T22:32:55.963Z,81.10
2018-02-18T22:35:23.679Z,81.00
2018-02-18T22:37:51.899Z,81.10
2018-02-18T22:40:19.350Z,81.70
2018-02-18T22:42:46.822Z,81.10
2018-02-18T22:45:14.278Z,81.20
2018-02-18T22:47:41.893Z,81.30
2018-02-18T22:50:09.398Z,81.30
2018-02-18T22:52:36.846Z,81.30
2018-02-18T22:55:05.139Z,81.30
2018-02-18T22:57:32.634Z,81.30
2018-02-18T23:00:00.846Z,81.30
2018-02-18T23:02:28.391Z,81.20
2018-02-18T23:08:08.005Z,81.40
2018-02-18T23:10:35.535Z,82.20
2018-02-18T23:13:02.994Z,81.60
2018-02-18T23:15:30.474Z,81.70
2018-02-18T23:17:57.942Z,81.70
2018-02-18T23:20:25.467Z,81.60
2018-02-18T23:22:52.926Z,81.70
2018-02-18T23:25:20.398Z,81.60
2018-02-18T23:27:48.759Z,81.80
2018-02-18T23:30:16.215Z,81.70
2018-02-18T23:32:44.180Z,81.80
2018-02-18T23:35:11.628Z,81.80
2018-02-18T23:37:39.127Z,81.90
2018-02-18T23:40:06.583Z,81.90
2018-02-18T23:42:34.041Z,82.00
2018-02-18T23:45:01.510Z,82.10
2018-02-18T23:47:28.989Z,82.20
2018-02-18T23:49:57.266Z,82.30
2018-02-18T23:52:25.539Z,82.40
2018-02-18T23:54:53.024Z,82.40
2018-02-18T23:57:20.502Z,82.40
2018-02-18T23:59:47.967Z,82.40
